Time;durP1;ratioP1;P1;durP2;ratioP2;P2;SDS_P1;SDS_P2;PMS_P1;PMS_P2;Temp;Humidity;BMP_temperature;BMP_pressure;BME280_temperature;BME280_humidity;BME280_pressure;Samples;Min_cycle;Max_cycle;Signal;HPM_P1;HPM_P2
2022/03/12 00:00:48;;;;;;;8.50;5.57;;;7.10;50.10;;;;;;5040531;28;20138;-68
2022/03/12 00:03:17;;;;;;;8.50;5.25;;;7.20;50.20;;;;;;5041787;28;20040;-68
2022/03/12 00:05:54;;;;;;;9.23;5.78;;;7.10;50.30;;;;;;5042625;28;20029;-68
2022/03/12 00:08:41;;;;;;;10.00;5.22;;;7.10;50.30;;;;;;5044330;28;20044;-68
2022/03/12 00:11:19;;;;;;;8.90;5.85;;;7.10;50.90;;;;;;5042666;28;20041;-67
2022/03/12 00:13:47;;;;;;;10.38;5.82;;;7.10;50.20;;;;;;5043895;28;20045;-67
2022/03/12 00:16:15;;;;;;;8.35;5.00;;;7.10;50.10;;;;;;5043317;28;20052;-68
2022/03/12 00:18:46;;;;;;;9.68;5.68;;;7.10;50.20;;;;;;5059527;28;20382;-68
2022/03/12 00:21:13;;;;;;;8.52;5.25;;;7.10;50.50;;;;;;5043056;28;20037;-68
2022/03/12 00:23:41;;;;;;;12.38;5.38;;;7.10;50.50;;;;;;5024986;28;20073;-67
2022/03/12 00:26:07;;;;;;;8.80;5.45;;;7.00;50.40;;;;;;5045636;28;20313;-67
2022/03/12 00:28:33;;;;;;;7.65;5.60;;;7.00;50.60;;;;;;5041923;28;20041;-67
2022/03/12 00:30:59;;;;;;;9.23;5.93;;;7.00;50.50;;;;;;5044149;28;20037;-67
2022/03/12 00:33:25;;;;;;;11.32;5.75;;;7.00;50.70;;;;;;5024405;28;20049;-67
2022/03/12 00:35:52;;;;;;;7.55;5.25;;;7.00;50.80;;;;;;5043373;28;20514;-67
2022/03/12 00:38:21;;;;;;;6.68;5.65;;;7.00;50.80;;;;;;5044766;28;20051;-67
2022/03/12 00:40:47;;;;;;;7.35;5.50;;;6.90;50.80;;;;;;5043961;28;20037;-67
2022/03/12 00:43:14;;;;;;;7.28;4.80;;;7.00;50.70;;;;;;5040059;28;20109;-67
2022/03/12 00:45:41;;;;;;;7.80;5.28;;;7.10;50.60;;;;;;5040716;28;20057;-68
2022/03/12 00:48:06;;;;;;;8.23;5.22;;;7.00;50.80;;;;;;5044038;28;20555;-68
2022/03/12 00:50:32;;;;;;;9.43;5.65;;;7.00;50.80;;;;;;5042104;28;20132;-68
2022/03/12 00:52:58;;;;;;;7.97;5.43;;;6.90;51.00;;;;;;5045375;28;20041;-68
2022/03/12 00:55:24;;;;;;;7.05;5.65;;;6.90;51.30;;;;;;5046565;28;20045;-68
2022/03/12 00:57:50;;;;;;;9.85;4.97;;;6.90;51.30;;;;;;5043654;28;20055;-68
2022/03/12 01:00:21;;;;;;;7.47;5.07;;;6.90;51.50;;;;;;5044696;28;20037;-68
2022/03/12 01:02:47;;;;;;;9.00;5.25;;;6.90;51.50;;;;;;5042636;28;21473;-68
2022/03/12 01:05:16;;;;;;;9.73;5.25;;;6.90;51.50;;;;;;5045929;28;20045;-68
2022/03/12 01:07:42;;;;;;;8.52;5.43;;;6.90;51.50;;;;;;5041053;28;20041;-68
2022/03/12 01:10:09;;;;;;;7.07;5.30;;;7.00;51.40;;;;;;5025143;28;20053;-68
2022/03/12 01:12:35;;;;;;;7.70;5.32;;;6.90;51.50;;;;;;5044634;28;20044;-68
2022/03/12 01:15:02;;;;;;;9.40;5.05;;;6.90;51.70;;;;;;5024588;28;20045;-68
2022/03/12 01:17:27;;;;;;;8.45;5.28;;;6.90;51.60;;;;;;5025302;28;20124;-68
2022/03/12 01:19:53;;;;;;;7.82;5.40;;;6.90;51.70;;;;;;5044820;28;20139;-68
2022/03/12 01:22:21;;;;;;;8.45;5.70;;;6.90;51.70;;;;;;5027563;28;20448;-68
2022/03/12 01:24:48;;;;;;;8.90;5.07;;;6.90;51.90;;;;;;5043862;28;20404;-68
2022/03/12 01:27:15;;;;;;;7.38;4.93;;;6.90;51.80;;;;;;5032778;28;20095;-68
2022/03/12 01:29:42;;;;;;;7.97;5.47;;;6.90;51.90;;;;;;5043415;28;20439;-68
2022/03/12 01:32:09;;;;;;;8.23;5.45;;;6.80;51.70;;;;;;5046162;28;20420;-68
2022/03/12 01:34:35;;;;;;;8.35;5.13;;;6.90;51.80;;;;;;5041964;28;20060;-68
2022/03/12 01:37:01;;;;;;;8.38;5.30;;;6.80;52.00;;;;;;5042421;28;20042;-68
2022/03/12 01:39:28;;;;;;;9.70;6.30;;;6.90;51.70;;;;;;5043803;28;20128;-68
2022/03/12 01:41:54;;;;;;;8.35;5.60;;;6.90;51.80;;;;;;5043550;28;20760;-68
2022/03/12 01:44:21;;;;;;;7.70;5.80;;;6.90;51.80;;;;;;5043175;28;20202;-68
2022/03/12 01:46:48;;;;;;;7.43;5.43;;;6.90;51.60;;;;;;5040636;28;20067;-68
2022/03/12 01:49:22;;;;;;;9.65;5.57;;;6.90;51.50;;;;;;5043819;28;20368;-68
2022/03/12 01:51:53;;;;;;;7.85;5.30;;;6.90;51.50;;;;;;5040365;28;20549;-68
2022/03/12 01:54:21;;;;;;;11.18;5.90;;;6.90;51.50;;;;;;5041244;28;20477;-68
2022/03/12 01:56:48;;;;;;;8.35;5.55;;;6.90;51.50;;;;;;5044173;28;20041;-68
2022/03/12 01:59:13;;;;;;;11.35;6.07;;;6.90;51.50;;;;;;5040355;28;20037;-68
2022/03/12 02:01:39;;;;;;;8.60;5.20;;;6.90;51.50;;;;;;5040925;28;20239;-68
2022/03/12 02:04:07;;;;;;;7.65;5.53;;;6.90;51.60;;;;;;5041774;28;20037;-67
2022/03/12 02:06:34;;;;;;;8.43;6.05;;;6.90;51.50;;;;;;5042052;28;20053;-68
2022/03/12 02:09:00;;;;;;;8.43;6.10;;;7.00;51.50;;;;;;5043647;28;20558;-68
2022/03/12 02:11:27;;;;;;;7.85;5.88;;;7.00;51.60;;;;;;5039654;28;20064;-68
2022/03/12 02:14:11;;;;;;;8.50;5.32;;;7.00;51.80;;;;;;5040942;28;20060;-67
2022/03/12 02:16:38;;;;;;;8.82;5.80;;;6.90;52.10;;;;;;5039490;28;20048;-67
2022/03/12 02:19:04;;;;;;;9.48;5.63;;;6.90;51.80;;;;;;5040248;28;20064;-67
2022/03/12 02:21:53;;;;;;;8.50;5.65;;;6.90;51.70;;;;;;5042696;28;20040;-67
2022/03/12 02:24:20;;;;;;;7.82;5.10;;;7.00;51.90;;;;;;5042705;28;20057;-67
2022/03/12 02:26:47;;;;;;;8.43;5.68;;;7.00;51.90;;;;;;5044134;28;20041;-67
2022/03/12 02:29:18;;;;;;;9.75;6.30;;;7.00;51.90;;;;;;5041597;28;20060;-67
2022/03/12 02:31:48;;;;;;;7.75;5.93;;;6.90;52.00;;;;;;5042474;28;20372;-67
2022/03/12 02:34:14;;;;;;;8.32;5.25;;;6.90;51.90;;;;;;5038452;28;20052;-67
2022/03/12 02:36:40;;;;;;;9.15;5.10;;;6.90;51.80;;;;;;5041989;28;20136;-67
2022/03/12 02:39:07;;;;;;;7.82;6.03;;;6.90;52.00;;;;;;5039257;28;20469;-67
2022/03/12 02:41:33;;;;;;;7.95;5.50;;;6.90;51.90;;;;;;5041724;28;20056;-67
2022/03/12 02:44:00;;;;;;;8.95;5.80;;;7.00;51.90;;;;;;5042240;28;20044;-67
2022/03/12 02:46:31;;;;;;;7.13;5.80;;;6.90;52.00;;;;;;5043612;28;20132;-67
2022/03/12 02:48:58;;;;;;;7.45;5.90;;;6.90;52.20;;;;;;5026107;28;20042;-68
2022/03/12 02:51:25;;;;;;;10.10;5.82;;;6.90;52.40;;;;;;5025680;28;20049;-68
2022/03/12 02:53:56;;;;;;;8.68;5.68;;;6.90;52.30;;;;;;5042845;28;20614;-68
2022/03/12 02:56:25;;;;;;;9.07;6.63;;;6.90;52.20;;;;;;5026237;28;20420;-68
2022/03/12 02:58:52;;;;;;;8.23;5.70;;;6.90;52.40;;;;;;5040499;28;21254;-68
2022/03/12 03:01:18;;;;;;;7.65;6.03;;;6.90;52.30;;;;;;5039721;28;20459;-68
2022/03/12 03:03:46;;;;;;;7.18;5.70;;;6.90;52.30;;;;;;5043361;28;20037;-68
2022/03/12 03:06:15;;;;;;;7.35;5.68;;;6.90;52.50;;;;;;5042851;28;20107;-68
2022/03/12 03:08:42;;;;;;;8.55;5.63;;;6.90;53.30;;;;;;5038796;28;20111;-68
2022/03/12 03:11:12;;;;;;;9.32;5.88;;;6.90;52.20;;;;;;5041412;28;20040;-68
2022/03/12 03:13:44;;;;;;;9.93;5.80;;;6.90;52.40;;;;;;5026266;28;20564;-68
2022/03/12 03:16:21;;;;;;;10.77;5.82;;;6.90;52.40;;;;;;5038049;28;20048;-68
2022/03/12 03:18:51;;;;;;;6.70;5.95;;;6.80;52.80;;;;;;5028158;28;20477;-68
2022/03/12 03:21:18;;;;;;;7.47;6.22;;;6.80;52.60;;;;;;5042589;28;20631;-68
2022/03/12 03:23:45;;;;;;;10.60;5.43;;;6.80;52.80;;;;;;5024262;28;20595;-68
2022/03/12 03:26:12;;;;;;;8.07;5.75;;;6.80;52.70;;;;;;5040532;28;20033;-69
2022/03/12 03:28:38;;;;;;;8.30;6.10;;;6.80;52.80;;;;;;5041097;28;20040;-68
2022/03/12 03:31:07;;;;;;;8.38;5.03;;;6.80;52.90;;;;;;5040487;28;20143;-68
2022/03/12 03:33:34;;;;;;;9.45;5.80;;;6.80;53.10;;;;;;5042384;28;20778;-68
2022/03/12 03:36:00;;;;;;;9.30;5.90;;;6.70;53.10;;;;;;5040335;28;20470;-68
2022/03/12 03:38:25;;;;;;;8.80;5.95;;;6.70;53.10;;;;;;5043800;28;20069;-69
2022/03/12 03:40:51;;;;;;;9.38;5.97;;;6.70;53.00;;;;;;5039562;28;20044;-68
2022/03/12 03:43:24;;;;;;;8.18;5.82;;;6.70;53.10;;;;;;5045084;28;20441;-68
2022/03/12 03:45:54;;;;;;;8.63;6.00;;;6.60;53.10;;;;;;5039754;28;20164;-69
2022/03/12 03:48:22;;;;;;;8.77;5.60;;;6.60;53.20;;;;;;5029216;28;20115;-68
2022/03/12 03:50:49;;;;;;;8.07;5.00;;;6.60;53.20;;;;;;5042271;28;20048;-68
2022/03/12 03:53:17;;;;;;;7.90;5.80;;;6.50;53.20;;;;;;5040005;28;20295;-68
2022/03/12 03:55:44;;;;;;;9.88;5.95;;;6.50;53.20;;;;;;5035233;28;20049;-68
2022/03/12 03:58:15;;;;;;;10.10;6.63;;;6.50;53.30;;;;;;5047470;28;20045;-68
2022/03/12 04:00:52;;;;;;;10.38;5.93;;;6.50;53.20;;;;;;5045717;28;20045;-68
2022/03/12 04:03:19;;;;;;;9.90;6.20;;;6.50;53.30;;;;;;5039714;28;20049;-68
2022/03/12 04:05:44;;;;;;;11.68;6.45;;;6.40;53.40;;;;;;5048076;28;20053;-68
2022/03/12 04:08:10;;;;;;;7.68;5.93;;;6.40;53.70;;;;;;5043957;28;20061;-68
2022/03/12 04:10:36;;;;;;;9.25;5.68;;;6.40;53.70;;;;;;5044370;28;20052;-68
2022/03/12 04:13:14;;;;;;;8.48;6.10;;;6.40;53.70;;;;;;5044026;28;20048;-68
2022/03/12 04:15:40;;;;;;;11.57;6.40;;;6.40;53.90;;;;;;5042466;28;20046;-69
2022/03/12 04:18:07;;;;;;;7.20;5.50;;;6.30;53.80;;;;;;5044069;28;20036;-68
2022/03/12 04:20:34;;;;;;;6.85;5.65;;;6.30;53.90;;;;;;5036512;28;20115;-68
2022/03/12 04:23:01;;;;;;;9.63;6.30;;;6.30;54.00;;;;;;5044865;28;20140;-68
2022/03/12 04:25:29;;;;;;;8.25;5.53;;;6.30;54.10;;;;;;5044582;28;20427;-68
2022/03/12 04:27:54;;;;;;;7.05;5.60;;;6.20;54.40;;;;;;5047166;28;20504;-68
2022/03/12 04:30:20;;;;;;;6.40;5.53;;;6.20;54.40;;;;;;5038104;28;20061;-68
2022/03/12 04:32:46;;;;;;;7.40;5.63;;;6.20;54.70;;;;;;5033070;28;20102;-68
2022/03/12 04:35:13;;;;;;;8.18;5.88;;;6.20;54.80;;;;;;5047085;28;20094;-68
2022/03/12 04:37:39;;;;;;;8.55;5.57;;;6.20;54.80;;;;;;5040662;28;20053;-69
2022/03/12 04:40:11;;;;;;;7.88;6.10;;;6.20;54.90;;;;;;5035823;28;20111;-68
2022/03/12 04:42:38;;;;;;;7.70;5.57;;;6.30;55.00;;;;;;5043657;28;20481;-68
2022/03/12 04:45:08;;;;;;;8.10;5.82;;;6.30;55.10;;;;;;5042700;28;20117;-68
2022/03/12 04:47:35;;;;;;;10.65;6.15;;;6.30;55.10;;;;;;5043054;28;20029;-68
2022/03/12 04:50:02;;;;;;;7.68;5.97;;;6.20;55.20;;;;;;5044270;28;20563;-68
2022/03/12 04:52:29;;;;;;;9.50;6.40;;;6.20;55.40;;;;;;5024855;28;20053;-69
2022/03/12 04:54:56;;;;;;;7.82;5.78;;;6.30;55.40;;;;;;5031083;28;20188;-68
2022/03/12 04:57:22;;;;;;;7.25;5.55;;;6.20;55.70;;;;;;5035503;28;20048;-68
2022/03/12 04:59:48;;;;;;;7.10;6.20;;;6.20;55.50;;;;;;5043467;28;20053;-68
2022/03/12 05:02:13;;;;;;;7.47;5.97;;;6.20;55.70;;;;;;5044090;28;20044;-68
2022/03/12 05:04:39;;;;;;;10.20;6.28;;;6.10;55.60;;;;;;5047823;28;20515;-68
2022/03/12 05:07:13;;;;;;;9.20;5.88;;;6.10;55.50;;;;;;5036947;28;20044;-68
2022/03/12 05:09:39;;;;;;;8.38;5.75;;;6.20;55.80;;;;;;5048900;28;20071;-68
2022/03/12 05:12:05;;;;;;;7.68;5.80;;;6.10;56.00;;;;;;5044186;28;20033;-68
2022/03/12 05:14:35;;;;;;;6.10;5.43;;;6.20;56.80;;;;;;5041454;28;20087;-67
2022/03/12 05:17:08;;;;;;;8.00;6.85;;;6.10;57.20;;;;;;5036893;28;20048;-68
2022/03/12 05:19:36;;;;;;;8.93;5.85;;;6.10;57.20;;;;;;5044956;28;20045;-67
2022/03/12 05:22:05;;;;;;;7.20;6.38;;;6.00;57.10;;;;;;5038586;28;20544;-68
2022/03/12 05:24:31;;;;;;;9.60;6.32;;;6.10;57.00;;;;;;5042787;28;20041;-67
2022/03/12 05:26:58;;;;;;;10.57;5.93;;;6.10;56.80;;;;;;5030687;28;20056;-67
2022/03/12 05:29:24;;;;;;;10.30;6.25;;;6.10;56.90;;;;;;5046208;28;20049;-68
2022/03/12 05:31:52;;;;;;;7.80;6.07;;;6.10;56.80;;;;;;5021900;28;20081;-68
2022/03/12 05:34:21;;;;;;;8.70;6.10;;;6.10;56.70;;;;;;5039023;28;20045;-67
2022/03/12 05:36:47;;;;;;;8.63;6.38;;;6.10;57.10;;;;;;5043549;28;20040;-68
2022/03/12 05:39:13;;;;;;;7.38;5.60;;;6.10;57.40;;;;;;5050156;28;20485;-67
2022/03/12 05:41:41;;;;;;;9.10;6.50;;;6.10;57.40;;;;;;5026242;28;20048;-68
2022/03/12 05:44:07;;;;;;;10.13;6.60;;;6.10;57.70;;;;;;5026062;28;20052;-68
2022/03/12 05:46:33;;;;;;;8.43;6.18;;;6.10;57.90;;;;;;5030266;28;20071;-67
2022/03/12 05:48:59;;;;;;;10.60;6.55;;;6.10;58.40;;;;;;5027112;28;20072;-68
2022/03/12 05:51:24;;;;;;;8.00;6.40;;;6.00;58.30;;;;;;5049009;28;20048;-68
2022/03/12 05:53:50;;;;;;;8.73;6.57;;;6.00;58.20;;;;;;5042580;28;20111;-68
2022/03/12 05:56:16;;;;;;;8.35;6.30;;;6.00;58.10;;;;;;5043724;28;20132;-68
2022/03/12 05:58:42;;;;;;;11.45;6.78;;;6.00;57.90;;;;;;5043695;28;20132;-68
2022/03/12 06:01:08;;;;;;;8.35;6.53;;;6.00;57.60;;;;;;5034245;28;20119;-68
2022/03/12 06:03:34;;;;;;;10.27;6.20;;;6.00;57.50;;;;;;5041589;28;20045;-68
2022/03/12 06:06:00;;;;;;;8.32;6.20;;;6.00;57.70;;;;;;5042524;28;20039;-68
2022/03/12 06:08:27;;;;;;;9.52;6.60;;;6.00;57.60;;;;;;5038208;28;20103;-68
2022/03/12 06:10:56;;;;;;;11.52;6.53;;;5.90;57.50;;;;;;5036234;28;20045;-68
2022/03/12 06:13:27;;;;;;;9.15;6.30;;;5.90;57.70;;;;;;5042327;28;20084;-68
2022/03/12 06:15:58;;;;;;;7.10;5.75;;;5.90;57.70;;;;;;5041436;28;20054;-68
2022/03/12 06:18:36;;;;;;;9.48;6.18;;;5.90;57.70;;;;;;5036473;28;20087;-68
2022/03/12 06:21:06;;;;;;;7.20;6.13;;;5.90;57.70;;;;;;5042304;28;20420;-68
2022/03/12 06:23:32;;;;;;;8.27;6.55;;;5.90;57.80;;;;;;5042358;28;20485;-68
2022/03/12 06:25:58;;;;;;;11.10;6.70;;;5.90;57.90;;;;;;5042358;28;20653;-68
2022/03/12 06:28:24;;;;;;;10.25;6.32;;;5.80;58.10;;;;;;5039876;28;20040;-68
2022/03/12 06:30:53;;;;;;;8.80;5.80;;;5.80;58.20;;;;;;5039921;28;20092;-68
2022/03/12 06:33:20;;;;;;;9.80;6.47;;;5.80;58.10;;;;;;5040478;28;20032;-68
2022/03/12 06:35:46;;;;;;;11.23;6.57;;;5.90;58.40;;;;;;5040318;28;20146;-68
2022/03/12 06:38:14;;;;;;;11.90;6.53;;;5.80;58.50;;;;;;5034640;28;20068;-68
2022/03/12 06:40:41;;;;;;;8.60;6.60;;;5.90;58.70;;;;;;5041799;28;20036;-68
2022/03/12 06:43:11;;;;;;;8.73;6.35;;;5.80;58.80;;;;;;5042428;28;20045;-68
2022/03/12 06:45:37;;;;;;;7.38;6.50;;;5.80;58.70;;;;;;5036947;28;20049;-68
2022/03/12 06:48:03;;;;;;;8.75;6.05;;;5.90;58.90;;;;;;5038571;28;20049;-68
2022/03/12 06:50:32;;;;;;;10.73;6.35;;;5.90;59.00;;;;;;5038671;28;20053;-68
2022/03/12 06:52:59;;;;;;;7.22;6.20;;;5.90;59.10;;;;;;5037985;28;20349;-68
2022/03/12 06:55:29;;;;;;;8.77;6.32;;;5.90;59.00;;;;;;5046549;28;20052;-68
2022/03/12 06:57:57;;;;;;;11.20;6.95;;;6.00;59.10;;;;;;5044839;28;20048;-68
2022/03/12 07:00:29;;;;;;;8.65;6.63;;;6.00;59.10;;;;;;5045119;28;20064;-68
2022/03/12 07:02:55;;;;;;;9.60;6.72;;;6.00;59.30;;;;;;5041386;28;20128;-68
2022/03/12 07:05:22;;;;;;;9.07;6.30;;;5.90;59.20;;;;;;5035310;28;20127;-68
2022/03/12 07:07:49;;;;;;;9.00;6.38;;;6.00;60.10;;;;;;5040240;28;20393;-68
2022/03/12 07:10:16;;;;;;;9.32;6.57;;;5.90;59.50;;;;;;5040479;28;20045;-68
2022/03/12 07:12:44;;;;;;;7.85;6.22;;;5.90;59.40;;;;;;5019943;28;20460;-68
2022/03/12 07:15:11;;;;;;;9.82;6.35;;;6.00;59.40;;;;;;5035927;28;20045;-68
2022/03/12 07:17:36;;;;;;;10.75;7.07;;;5.90;59.80;;;;;;5039176;28;20045;-68
2022/03/12 07:20:03;;;;;;;9.52;6.72;;;6.00;59.90;;;;;;5040792;28;20760;-69
2022/03/12 07:22:30;;;;;;;11.48;6.30;;;6.00;59.80;;;;;;5038182;28;20048;-68
2022/03/12 07:24:57;;;;;;;9.10;6.50;;;6.10;59.90;;;;;;5039263;28;20052;-67
2022/03/12 07:27:25;;;;;;;9.55;6.10;;;6.20;60.30;;;;;;5039992;28;20072;-68
2022/03/12 07:29:51;;;;;;;10.05;6.80;;;6.40;60.30;;;;;;5040324;28;20068;-69
2022/03/12 07:32:19;;;;;;;9.55;6.78;;;6.70;60.30;;;;;;5038624;28;20037;-69
2022/03/12 07:34:45;;;;;;;9.23;6.75;;;7.10;60.30;;;;;;5040148;28;20049;-69
2022/03/12 07:37:12;;;;;;;10.80;7.25;;;7.70;59.00;;;;;;5038675;28;20524;-69
2022/03/12 07:39:38;;;;;;;7.53;6.63;;;8.30;57.70;;;;;;5042252;28;20056;-69
2022/03/12 07:42:05;;;;;;;9.70;7.60;;;8.90;57.40;;;;;;5034931;28;20751;-69
2022/03/12 07:44:31;;;;;;;10.40;6.80;;;9.70;56.40;;;;;;5038347;28;20238;-69
2022/03/12 07:46:57;;;;;;;10.60;7.13;;;10.30;55.10;;;;;;5037920;28;20072;-69
2022/03/12 07:49:25;;;;;;;8.85;6.65;;;10.70;54.30;;;;;;5018986;28;20057;-69
2022/03/12 07:51:53;;;;;;;8.15;6.82;;;10.80;53.00;;;;;;5040792;28;20041;-69
2022/03/12 07:54:24;;;;;;;8.95;6.55;;;10.70;53.00;;;;;;5042465;28;20481;-69
2022/03/12 07:56:50;;;;;;;10.00;6.88;;;10.90;52.60;;;;;;5043516;28;20041;-69
2022/03/12 07:59:18;;;;;;;12.43;7.53;;;11.40;52.50;;;;;;5039740;28;20377;-69
2022/03/12 08:01:44;;;;;;;8.45;7.15;;;11.50;51.80;;;;;;5038898;28;20041;-69
2022/03/12 08:04:10;;;;;;;8.65;7.50;;;11.40;51.60;;;;;;5041529;28;20049;-69
2022/03/12 08:06:37;;;;;;;8.30;7.07;;;11.30;51.50;;;;;;5041870;28;20043;-69
2022/03/12 08:09:03;;;;;;;9.77;7.40;;;11.20;52.10;;;;;;5039215;28;20033;-69
2022/03/12 08:11:30;;;;;;;8.70;7.05;;;11.40;52.20;;;;;;5040304;28;20132;-69
2022/03/12 08:14:02;;;;;;;11.38;7.30;;;11.50;52.00;;;;;;5040677;28;20049;-69
2022/03/12 08:16:30;;;;;;;9.73;7.18;;;11.40;51.70;;;;;;5022973;28;20054;-69
2022/03/12 08:18:56;;;;;;;10.45;7.95;;;11.40;52.20;;;;;;5041643;28;20044;-69
2022/03/12 08:21:24;;;;;;;11.85;8.63;;;11.40;51.80;;;;;;5039793;28;20072;-69
2022/03/12 08:23:50;;;;;;;10.05;7.40;;;11.50;52.20;;;;;;5034357;28;20061;-69
2022/03/12 08:26:18;;;;;;;8.88;7.68;;;11.80;52.30;;;;;;5040611;28;20095;-69
2022/03/12 08:28:44;;;;;;;10.27;8.18;;;12.30;52.10;;;;;;5038637;28;20137;-69
2022/03/12 08:31:11;;;;;;;9.88;8.02;;;12.90;52.20;;;;;;5045389;28;20134;-69
2022/03/12 08:33:37;;;;;;;9.20;8.07;;;13.40;50.80;;;;;;5043250;28;20040;-69
2022/03/12 08:36:04;;;;;;;9.98;8.98;;;13.80;50.00;;;;;;5042361;28;20368;-69
2022/03/12 08:38:32;;;;;;;12.18;8.68;;;13.90;49.20;;;;;;5040777;28;20047;-69
2022/03/12 08:40:58;;;;;;;13.15;8.30;;;13.90;49.70;;;;;;5045781;28;20443;-69
2022/03/12 08:43:24;;;;;;;11.18;8.25;;;13.90;49.60;;;;;;5045181;28;20041;-69
2022/03/12 08:45:50;;;;;;;11.27;7.82;;;13.90;49.40;;;;;;5038084;28;20480;-69
2022/03/12 08:48:16;;;;;;;12.07;8.85;;;14.10;49.80;;;;;;5041777;28;20053;-69
2022/03/12 08:50:44;;;;;;;10.30;8.48;;;14.00;49.70;;;;;;5043993;28;20047;-69
2022/03/12 08:53:10;;;;;;;17.40;8.93;;;14.20;50.20;;;;;;5041220;28;20543;-69
2022/03/12 08:55:37;;;;;;;15.93;8.68;;;14.30;50.10;;;;;;5042751;28;20148;-69
2022/03/12 08:58:03;;;;;;;10.55;8.23;;;14.30;50.50;;;;;;5044558;28;20554;-68
2022/03/12 09:00:29;;;;;;;10.57;8.75;;;14.50;50.00;;;;;;5045636;28;20056;-68
2022/03/12 09:02:55;;;;;;;11.30;8.90;;;14.70;50.20;;;;;;5040516;28;20043;-69
2022/03/12 09:05:21;;;;;;;11.50;8.32;;;14.90;50.00;;;;;;5040653;28;20079;-68
2022/03/12 09:07:49;;;;;;;9.65;8.45;;;15.10;49.40;;;;;;5047851;28;20449;-68
2022/03/12 09:10:16;;;;;;;11.50;9.00;;;15.30;49.70;;;;;;5042719;28;20499;-68
2022/03/12 09:12:42;;;;;;;11.98;8.93;;;15.60;49.60;;;;;;5043479;28;20112;-69
2022/03/12 09:15:09;;;;;;;9.77;8.55;;;15.80;50.10;;;;;;5044089;28;20128;-69
2022/03/12 09:17:35;;;;;;;9.63;7.95;;;15.90;49.20;;;;;;5045968;28;20053;-68
2022/03/12 09:20:03;;;;;;;10.15;8.50;;;15.90;48.90;;;;;;5041982;28;20036;-68
2022/03/12 09:22:29;;;;;;;8.38;7.45;;;16.00;49.20;;;;;;5042884;28;20416;-69
2022/03/12 09:24:54;;;;;;;11.70;8.70;;;16.30;49.50;;;;;;5043456;28;20057;-69
2022/03/12 09:27:20;;;;;;;9.45;8.45;;;16.50;48.60;;;;;;5026501;28;20048;-69
2022/03/12 09:29:47;;;;;;;9.52;8.35;;;16.80;48.50;;;;;;5043258;28;20087;-68
2022/03/12 09:32:13;;;;;;;11.70;8.75;;;16.50;48.70;;;;;;5040606;28;20045;-68
2022/03/12 09:34:39;;;;;;;10.52;8.32;;;16.30;49.00;;;;;;5025293;28;20056;-69
2022/03/12 09:37:06;;;;;;;10.68;8.40;;;16.30;48.80;;;;;;5025674;28;20221;-69
2022/03/12 09:39:32;;;;;;;10.10;8.88;;;16.60;49.10;;;;;;5040603;28;20037;-68
2022/03/12 09:41:58;;;;;;;11.02;8.68;;;16.70;49.00;;;;;;5043020;28;20110;-68
2022/03/12 09:44:24;;;;;;;10.15;9.00;;;16.50;49.00;;;;;;5041810;28;20523;-69
2022/03/12 09:46:50;;;;;;;10.20;8.23;;;16.20;49.80;;;;;;5042890;28;20032;-69
2022/03/12 09:49:16;;;;;;;13.30;8.45;;;16.20;50.00;;;;;;5043085;28;20463;-69
2022/03/12 09:51:43;;;;;;;10.52;8.85;;;16.30;50.50;;;;;;5029813;28;20102;-69
2022/03/12 09:54:11;;;;;;;9.88;8.70;;;16.40;50.80;;;;;;5043323;28;20048;-69
2022/03/12 09:56:37;;;;;;;11.25;8.45;;;16.50;50.90;;;;;;5042645;28;20183;-69
2022/03/12 09:59:05;;;;;;;10.00;8.20;;;16.50;50.20;;;;;;5045369;28;20514;-69
2022/03/12 10:01:31;;;;;;;10.30;8.75;;;16.30;50.70;;;;;;5041188;28;20055;-69
2022/03/12 10:03:57;;;;;;;12.90;8.85;;;16.20;51.70;;;;;;5045062;28;20048;-69
2022/03/12 10:06:22;;;;;;;11.88;8.60;;;16.10;52.30;;;;;;5041379;28;20032;-69
2022/03/12 10:08:48;;;;;;;9.05;8.15;;;16.10;53.00;;;;;;5041051;28;20118;-68
2022/03/12 10:11:14;;;;;;;10.38;8.23;;;16.20;53.40;;;;;;5043304;28;20048;-68
2022/03/12 10:13:40;;;;;;;10.65;8.20;;;16.30;53.20;;;;;;5047090;28;20469;-68
2022/03/12 10:16:07;;;;;;;8.68;7.30;;;16.20;53.60;;;;;;5041405;28;20124;-68
2022/03/12 10:18:32;;;;;;;8.68;7.78;;;16.30;53.90;;;;;;5040776;28;20053;-68
2022/03/12 10:21:00;;;;;;;7.75;6.45;;;16.30;54.60;;;;;;5044358;28;20029;-70
2022/03/12 10:23:26;;;;;;;10.23;7.22;;;16.50;54.90;;;;;;5024711;28;20037;-71
2022/03/12 10:25:51;;;;;;;7.22;6.50;;;16.70;55.20;;;;;;5043477;28;20050;-70
2022/03/12 10:28:18;;;;;;;6.97;5.40;;;16.80;55.60;;;;;;5044190;28;20043;-71
2022/03/12 10:30:43;;;;;;;8.00;6.45;;;16.80;56.50;;;;;;5039480;28;20095;-70
2022/03/12 10:33:09;;;;;;;6.72;5.47;;;16.90;57.10;;;;;;5040053;28;20041;-72
2022/03/12 10:35:37;;;;;;;11.18;5.95;;;17.30;56.90;;;;;;5040803;28;20159;-66
2022/03/12 10:38:10;;;;;;;8.00;5.05;;;17.40;56.60;;;;;;5044039;28;20484;-65
2022/03/12 10:40:36;;;;;;;7.35;6.00;;;17.60;56.20;;;;;;5044045;28;20127;-67
2022/03/12 10:43:12;;;;;;;7.88;5.72;;;17.50;56.20;;;;;;5041183;28;20053;-67
2022/03/12 10:45:44;;;;;;;6.50;5.47;;;17.50;56.50;;;;;;5041216;28;20576;-67
2022/03/12 10:48:10;;;;;;;7.30;5.35;;;17.50;56.30;;;;;;5043776;28;20040;-67
2022/03/12 10:50:44;;;;;;;7.20;5.88;;;17.40;55.70;;;;;;5044746;28;20039;-68
2022/03/12 10:53:11;;;;;;;7.25;5.40;;;17.40;56.60;;;;;;5037205;28;20059;-68
2022/03/12 10:55:41;;;;;;;7.15;5.90;;;17.30;56.80;;;;;;5042357;28;20071;-68
2022/03/12 10:58:09;;;;;;;7.68;5.43;;;17.10;56.70;;;;;;5040445;28;20043;-68
2022/03/12 11:00:55;;;;;;;7.13;5.55;;;17.00;56.50;;;;;;5041899;28;20139;-69
2022/03/12 11:03:23;;;;;;;9.48;5.43;;;17.00;57.10;;;;;;5041545;28;20053;-68
2022/03/12 11:05:51;;;;;;;7.70;5.57;;;17.10;57.20;;;;;;5042533;28;20057;-68
2022/03/12 11:08:20;;;;;;;7.50;5.85;;;17.20;56.80;;;;;;5046201;28;20037;-68
2022/03/12 11:10:57;;;;;;;10.38;5.70;;;17.00;57.10;;;;;;5038177;28;20053;-68
2022/03/12 11:13:40;;;;;;;7.93;5.70;;;16.60;57.60;;;;;;5040796;28;20043;-68
2022/03/12 11:16:24;;;;;;;9.18;5.90;;;16.30;58.10;;;;;;5041885;28;20037;-68
2022/03/12 11:18:52;;;;;;;8.70;5.80;;;16.30;58.70;;;;;;5037108;28;20052;-67
2022/03/12 11:21:37;;;;;;;6.70;6.00;;;16.60;58.90;;;;;;5037573;28;20363;-68
2022/03/12 11:24:25;;;;;;;7.85;5.40;;;16.80;58.00;;;;;;5041754;28;20060;-67
2022/03/12 11:26:56;;;;;;;7.38;6.15;;;16.90;57.90;;;;;;5039860;28;20468;-69
2022/03/12 11:29:27;;;;;;;7.72;6.38;;;17.20;57.80;;;;;;5039120;28;20102;-70
2022/03/12 11:32:00;;;;;;;8.07;6.38;;;17.60;57.20;;;;;;5039262;28;20045;-69
2022/03/12 11:34:34;;;;;;;10.65;6.55;;;17.80;56.40;;;;;;5042009;28;20133;-70
2022/03/12 11:37:15;;;;;;;7.18;5.75;;;17.90;56.20;;;;;;5039418;28;20496;-70
2022/03/12 11:39:53;;;;;;;7.80;5.38;;;17.90;55.70;;;;;;5034239;28;20045;-69
2022/03/12 11:42:33;;;;;;;6.22;5.20;;;17.60;55.70;;;;;;5037669;28;20041;-69
2022/03/12 11:45:02;;;;;;;7.68;6.15;;;17.50;55.80;;;;;;5043355;28;20106;-69
2022/03/12 11:47:29;;;;;;;7.55;5.57;;;17.50;56.30;;;;;;5024777;28;20037;-70
2022/03/12 11:50:01;;;;;;;7.43;5.75;;;17.70;56.40;;;;;;5037337;28;20057;-69
2022/03/12 11:52:27;;;;;;;10.82;6.40;;;18.10;55.70;;;;;;5040751;28;20063;-71
2022/03/12 11:54:57;;;;;;;7.43;6.10;;;18.30;55.70;;;;;;5043604;28;20844;-68
2022/03/12 11:57:28;;;;;;;7.88;6.50;;;18.60;55.20;;;;;;5038775;28;20068;-69
2022/03/12 11:59:55;;;;;;;8.93;6.80;;;18.90;54.80;;;;;;5037320;28;20096;-69
2022/03/12 12:02:22;;;;;;;8.85;6.85;;;19.00;54.10;;;;;;5046050;28;20407;-70
2022/03/12 12:04:51;;;;;;;7.75;6.82;;;19.00;53.70;;;;;;5044712;28;20131;-69
2022/03/12 12:07:17;;;;;;;7.05;6.10;;;18.80;53.80;;;;;;5044207;28;20094;-70
2022/03/12 12:09:43;;;;;;;9.25;6.45;;;18.40;53.80;;;;;;5044908;28;20052;-70
2022/03/12 12:12:13;;;;;;;8.18;6.60;;;17.80;54.60;;;;;;5045411;28;20040;-67
2022/03/12 12:14:43;;;;;;;13.40;6.85;;;17.40;55.40;;;;;;5046496;28;20160;-66
2022/03/12 12:17:10;;;;;;;7.82;6.40;;;17.20;56.00;;;;;;5039620;28;20041;-67
2022/03/12 12:19:36;;;;;;;7.68;6.38;;;17.10;56.60;;;;;;5041622;28;20391;-66
2022/03/12 12:22:08;;;;;;;9.80;7.28;;;17.20;57.00;;;;;;5042686;28;20086;-66
2022/03/12 12:24:39;;;;;;;9.15;6.70;;;17.20;57.10;;;;;;5042988;28;20115;-66
2022/03/12 12:27:08;;;;;;;9.00;6.20;;;17.30;57.30;;;;;;5042858;28;20551;-67
2022/03/12 12:29:55;;;;;;;9.40;6.45;;;17.40;57.30;;;;;;5044064;28;20056;-66
2022/03/12 12:32:29;;;;;;;13.63;7.43;;;17.40;56.90;;;;;;5042663;28;20053;-66
2022/03/12 12:35:04;;;;;;;9.50;6.68;;;17.50;56.90;;;;;;5043654;28;20051;-66
2022/03/12 12:37:52;;;;;;;8.68;6.30;;;17.80;56.50;;;;;;5019507;28;20459;-67
2022/03/12 12:40:21;;;;;;;8.13;5.88;;;17.90;55.50;;;;;;5044970;28;20080;-66
2022/03/12 12:42:51;;;;;;;7.47;5.68;;;17.70;55.50;;;;;;5042401;28;20144;-66
2022/03/12 12:45:20;;;;;;;7.85;5.95;;;17.40;55.80;;;;;;5045702;28;20072;-66
2022/03/12 12:47:46;;;;;;;7.35;6.43;;;17.00;56.60;;;;;;5046475;28;20056;-66
2022/03/12 12:50:24;;;;;;;7.18;5.97;;;16.80;57.00;;;;;;5039946;28;20505;-66
2022/03/12 12:53:13;;;;;;;7.45;5.90;;;16.60;56.60;;;;;;5042212;28;20036;-66
2022/03/12 12:55:40;;;;;;;12.68;6.00;;;16.50;57.30;;;;;;5044909;28;20416;-68